sensor_id;sensor_type;location;lat;lon;timestamp;temperature;humidity
17571;DHT22;8903;52.220;20.978;2022-08-21T00:00:05;22.60;99.90
17571;DHT22;8903;52.220;20.978;2022-08-21T00:02:43;22.60;99.90
17571;DHT22;8903;52.220;20.978;2022-08-21T00:05:10;22.50;99.90
17571;DHT22;8903;52.220;20.978;2022-08-21T00:07:37;22.50;99.90
17571;DHT22;8903;52.220;20.978;2022-08-21T00:10:04;22.40;99.90
17571;DHT22;8903;52.220;20.978;2022-08-21T00:12:31;22.40;99.90
17571;DHT22;8903;52.220;20.978;2022-08-21T00:14:58;22.40;99.90
17571;DHT22;8903;52.220;20.978;2022-08-21T00:17:25;22.30;99.90
17571;DHT22;8903;52.220;20.978;2022-08-21T00:19:53;22.20;99.90
17571;DHT22;8903;52.220;20.978;2022-08-21T00:22:19;22.20;99.90
17571;DHT22;8903;52.220;20.978;2022-08-21T00:24:46;22.20;99.90
17571;DHT22;8903;52.220;20.978;2022-08-21T00:27:13;22.10;99.90
17571;DHT22;8903;52.220;20.978;2022-08-21T00:29:39;22.10;99.90
17571;DHT22;8903;52.220;20.978;2022-08-21T00:32:06;22.10;99.90
17571;DHT22;8903;52.220;20.978;2022-08-21T00:34:33;22.00;99.90
17571;DHT22;8903;52.220;20.978;2022-08-21T00:37:01;22.00;99.90
17571;DHT22;8903;52.220;20.978;2022-08-21T00:39:27;22.00;99.90
17571;DHT22;8903;52.220;20.978;2022-08-21T00:41:54;22.00;99.90
17571;DHT22;8903;52.220;20.978;2022-08-21T00:44:21;21.90;99.90
17571;DHT22;8903;52.220;20.978;2022-08-21T00:46:47;21.90;99.90
17571;DHT22;8903;52.220;20.978;2022-08-21T00:49:14;21.90;99.90
17571;DHT22;8903;52.220;20.978;2022-08-21T00:51:42;21.80;99.90
17571;DHT22;8903;52.220;20.978;2022-08-21T00:54:11;21.80;99.90
17571;DHT22;8903;52.220;20.978;2022-08-21T00:56:38;21.80;99.90
17571;DHT22;8903;52.220;20.978;2022-08-21T00:59:05;21.70;99.90
17571;DHT22;8903;52.220;20.978;2022-08-21T01:01:32;21.70;99.90
17571;DHT22;8903;52.220;20.978;2022-08-21T01:03:59;21.70;99.90
17571;DHT22;8903;52.220;20.978;2022-08-21T01:06:25;21.60;99.90
17571;DHT22;8903;52.220;20.978;2022-08-21T01:08:53;21.60;99.90
17571;DHT22;8903;52.220;20.978;2022-08-21T01:11:22;21.60;99.90
17571;DHT22;8903;52.220;20.978;2022-08-21T01:13:49;21.60;99.90
17571;DHT22;8903;52.220;20.978;2022-08-21T01:16:17;21.50;99.90
17571;DHT22;8903;52.220;20.978;2022-08-21T01:18:45;21.50;99.90
17571;DHT22;8903;52.220;20.978;2022-08-21T01:21:15;21.50;99.90
17571;DHT22;8903;52.220;20.978;2022-08-21T01:23:43;21.50;99.90
17571;DHT22;8903;52.220;20.978;2022-08-21T01:26:11;21.40;99.90
17571;DHT22;8903;52.220;20.978;2022-08-21T01:28:38;21.40;99.90
17571;DHT22;8903;52.220;20.978;2022-08-21T01:31:07;21.40;99.90
17571;DHT22;8903;52.220;20.978;2022-08-21T01:33:34;21.40;99.90
17571;DHT22;8903;52.220;20.978;2022-08-21T01:36:01;21.40;99.90
17571;DHT22;8903;52.220;20.978;2022-08-21T01:38:29;21.30;99.90
17571;DHT22;8903;52.220;20.978;2022-08-21T01:40:56;21.30;99.90
17571;DHT22;8903;52.220;20.978;2022-08-21T01:43:23;21.30;99.90
17571;DHT22;8903;52.220;20.978;2022-08-21T01:45:49;21.30;99.90
17571;DHT22;8903;52.220;20.978;2022-08-21T01:48:16;21.30;99.90
17571;DHT22;8903;52.220;20.978;2022-08-21T01:50:43;21.20;99.90
17571;DHT22;8903;52.220;20.978;2022-08-21T01:53:10;21.20;99.90
17571;DHT22;8903;52.220;20.978;2022-08-21T01:55:38;21.20;99.90
17571;DHT22;8903;52.220;20.978;2022-08-21T01:58:04;21.20;99.90
17571;DHT22;8903;52.220;20.978;2022-08-21T02:00:31;21.20;99.90
17571;DHT22;8903;52.220;20.978;2022-08-21T02:02:58;21.10;99.90
17571;DHT22;8903;52.220;20.978;2022-08-21T02:05:24;21.10;99.90
17571;DHT22;8903;52.220;20.978;2022-08-21T02:07:52;21.00;99.90
17571;DHT22;8903;52.220;20.978;2022-08-21T02:10:21;21.00;99.90
17571;DHT22;8903;52.220;20.978;2022-08-21T02:12:49;21.00;99.90
17571;DHT22;8903;52.220;20.978;2022-08-21T02:15:16;21.00;99.90
17571;DHT22;8903;52.220;20.978;2022-08-21T02:17:45;20.90;99.90
17571;DHT22;8903;52.220;20.978;2022-08-21T02:20:16;20.90;99.90
17571;DHT22;8903;52.220;20.978;2022-08-21T02:22:43;20.90;99.90
17571;DHT22;8903;52.220;20.978;2022-08-21T02:25:10;20.90;99.90
17571;DHT22;8903;52.220;20.978;2022-08-21T02:27:37;20.80;99.90
17571;DHT22;8903;52.220;20.978;2022-08-21T02:30:06;20.80;99.90
17571;DHT22;8903;52.220;20.978;2022-08-21T02:32:33;20.80;99.90
17571;DHT22;8903;52.220;20.978;2022-08-21T02:35:01;20.80;99.90
17571;DHT22;8903;52.220;20.978;2022-08-21T02:37:27;20.80;99.90
17571;DHT22;8903;52.220;20.978;2022-08-21T02:39:54;20.80;99.90
17571;DHT22;8903;52.220;20.978;2022-08-21T02:42:21;20.80;99.90
17571;DHT22;8903;52.220;20.978;2022-08-21T02:44:47;20.80;99.90
17571;DHT22;8903;52.220;20.978;2022-08-21T02:47:15;20.80;99.90
17571;DHT22;8903;52.220;20.978;2022-08-21T02:49:42;20.70;99.90
17571;DHT22;8903;52.220;20.978;2022-08-21T02:52:09;20.70;99.90
17571;DHT22;8903;52.220;20.978;2022-08-21T02:54:37;20.70;99.90
17571;DHT22;8903;52.220;20.978;2022-08-21T02:57:03;20.70;99.90
17571;DHT22;8903;52.220;20.978;2022-08-21T02:59:30;20.60;99.90
17571;DHT22;8903;52.220;20.978;2022-08-21T03:01:57;20.60;99.90
17571;DHT22;8903;52.220;20.978;2022-08-21T03:04:25;20.60;99.90
17571;DHT22;8903;52.220;20.978;2022-08-21T03:06:52;20.50;99.90
17571;DHT22;8903;52.220;20.978;2022-08-21T03:09:19;20.50;99.90
17571;DHT22;8903;52.220;20.978;2022-08-21T03:11:46;20.40;99.90
17571;DHT22;8903;52.220;20.978;2022-08-21T03:14:13;20.40;99.90
17571;DHT22;8903;52.220;20.978;2022-08-21T03:16:39;20.30;99.90
17571;DHT22;8903;52.220;20.978;2022-08-21T03:19:07;20.30;99.90
17571;DHT22;8903;52.220;20.978;2022-08-21T03:21:35;20.30;99.90
17571;DHT22;8903;52.220;20.978;2022-08-21T03:24:02;20.30;99.90
17571;DHT22;8903;52.220;20.978;2022-08-21T03:26:29;20.30;99.90
17571;DHT22;8903;52.220;20.978;2022-08-21T03:28:56;20.30;99.90
17571;DHT22;8903;52.220;20.978;2022-08-21T03:31:23;20.20;99.90
17571;DHT22;8903;52.220;20.978;2022-08-21T03:33:52;20.20;99.90
17571;DHT22;8903;52.220;20.978;2022-08-21T03:36:20;20.20;99.90
17571;DHT22;8903;52.220;20.978;2022-08-21T03:38:48;20.20;99.90
17571;DHT22;8903;52.220;20.978;2022-08-21T03:41:15;20.20;99.90
17571;DHT22;8903;52.220;20.978;2022-08-21T03:43:42;20.20;99.90
17571;DHT22;8903;52.220;20.978;2022-08-21T03:46:08;20.20;99.90
17571;DHT22;8903;52.220;20.978;2022-08-21T03:48:36;20.20;99.90
17571;DHT22;8903;52.220;20.978;2022-08-21T03:51:03;20.20;99.90
17571;DHT22;8903;52.220;20.978;2022-08-21T03:53:30;20.20;99.90
17571;DHT22;8903;52.220;20.978;2022-08-21T03:55:58;20.20;99.90
17571;DHT22;8903;52.220;20.978;2022-08-21T03:58:26;20.20;99.90
17571;DHT22;8903;52.220;20.978;2022-08-21T04:00:54;20.20;99.90
17571;DHT22;8903;52.220;20.978;2022-08-21T04:03:22;20.20;99.90
17571;DHT22;8903;52.220;20.978;2022-08-21T04:05:49;20.20;99.90
17571;DHT22;8903;52.220;20.978;2022-08-21T04:08:16;20.20;99.90
17571;DHT22;8903;52.220;20.978;2022-08-21T04:10:44;20.30;99.90
17571;DHT22;8903;52.220;20.978;2022-08-21T04:13:13;20.30;99.90
17571;DHT22;8903;52.220;20.978;2022-08-21T04:15:40;20.30;99.90
17571;DHT22;8903;52.220;20.978;2022-08-21T04:18:07;20.30;99.90
17571;DHT22;8903;52.220;20.978;2022-08-21T04:20:35;20.40;99.90
17571;DHT22;8903;52.220;20.978;2022-08-21T04:23:02;20.40;99.90
17571;DHT22;8903;52.220;20.978;2022-08-21T04:25:29;20.40;99.90
17571;DHT22;8903;52.220;20.978;2022-08-21T04:27:56;20.40;99.90
17571;DHT22;8903;52.220;20.978;2022-08-21T04:30:24;20.40;99.90
17571;DHT22;8903;52.220;20.978;2022-08-21T04:32:51;20.40;99.90
17571;DHT22;8903;52.220;20.978;2022-08-21T04:35:19;20.40;99.90
17571;DHT22;8903;52.220;20.978;2022-08-21T04:37:46;20.50;99.90
17571;DHT22;8903;52.220;20.978;2022-08-21T04:40:14;20.60;99.90
17571;DHT22;8903;52.220;20.978;2022-08-21T04:42:42;20.60;99.90
17571;DHT22;8903;52.220;20.978;2022-08-21T04:45:13;20.60;99.90
17571;DHT22;8903;52.220;20.978;2022-08-21T04:47:42;20.70;99.90
17571;DHT22;8903;52.220;20.978;2022-08-21T04:50:08;20.70;99.90
17571;DHT22;8903;52.220;20.978;2022-08-21T04:52:40;20.80;99.90
17571;DHT22;8903;52.220;20.978;2022-08-21T04:55:06;20.90;99.90
17571;DHT22;8903;52.220;20.978;2022-08-21T04:57:33;21.00;99.90
17571;DHT22;8903;52.220;20.978;2022-08-21T05:00:00;21.10;99.90
17571;DHT22;8903;52.220;20.978;2022-08-21T05:02:28;21.10;99.90
17571;DHT22;8903;52.220;20.978;2022-08-21T05:04:59;21.20;99.90
17571;DHT22;8903;52.220;20.978;2022-08-21T05:07:26;21.30;99.90
17571;DHT22;8903;52.220;20.978;2022-08-21T05:09:54;21.30;99.90
17571;DHT22;8903;52.220;20.978;2022-08-21T05:12:20;21.30;99.90
17571;DHT22;8903;52.220;20.978;2022-08-21T05:14:47;21.40;99.90
17571;DHT22;8903;52.220;20.978;2022-08-21T05:17:14;21.50;99.90
17571;DHT22;8903;52.220;20.978;2022-08-21T05:19:41;21.60;99.90
17571;DHT22;8903;52.220;20.978;2022-08-21T05:22:09;21.70;99.90
17571;DHT22;8903;52.220;20.978;2022-08-21T05:24:35;21.80;99.90
17571;DHT22;8903;52.220;20.978;2022-08-21T05:27:03;21.90;99.90
17571;DHT22;8903;52.220;20.978;2022-08-21T05:29:30;22.10;99.90
17571;DHT22;8903;52.220;20.978;2022-08-21T05:31:57;22.10;99.90
17571;DHT22;8903;52.220;20.978;2022-08-21T05:34:23;22.10;99.90
17571;DHT22;8903;52.220;20.978;2022-08-21T05:36:50;22.10;99.90
17571;DHT22;8903;52.220;20.978;2022-08-21T05:39:18;22.20;99.90
17571;DHT22;8903;52.220;20.978;2022-08-21T05:41:45;22.10;99.90
17571;DHT22;8903;52.220;20.978;2022-08-21T05:44:13;22.10;99.90
17571;DHT22;8903;52.220;20.978;2022-08-21T05:46:39;22.10;99.90
17571;DHT22;8903;52.220;20.978;2022-08-21T05:49:06;22.10;99.90
17571;DHT22;8903;52.220;20.978;2022-08-21T05:51:33;22.10;99.90
17571;DHT22;8903;52.220;20.978;2022-08-21T05:53:59;22.10;99.90
17571;DHT22;8903;52.220;20.978;2022-08-21T05:56:27;22.20;99.90
17571;DHT22;8903;52.220;20.978;2022-08-21T05:58:54;22.20;99.90
17571;DHT22;8903;52.220;20.978;2022-08-21T06:01:21;22.20;99.90
17571;DHT22;8903;52.220;20.978;2022-08-21T06:03:47;22.20;99.90
17571;DHT22;8903;52.220;20.978;2022-08-21T06:06:14;22.30;99.90
17571;DHT22;8903;52.220;20.978;2022-08-21T06:08:41;22.50;99.90
17571;DHT22;8903;52.220;20.978;2022-08-21T06:11:07;22.50;99.90
17571;DHT22;8903;52.220;20.978;2022-08-21T06:13:36;22.60;99.90
17571;DHT22;8903;52.220;20.978;2022-08-21T06:16:05;22.70;99.90
17571;DHT22;8903;52.220;20.978;2022-08-21T06:18:32;22.80;99.90
17571;DHT22;8903;52.220;20.978;2022-08-21T06:20:59;22.90;99.90
17571;DHT22;8903;52.220;20.978;2022-08-21T06:23:25;22.90;99.90
17571;DHT22;8903;52.220;20.978;2022-08-21T06:25:52;22.90;99.90
17571;DHT22;8903;52.220;20.978;2022-08-21T06:28:19;22.90;99.90
17571;DHT22;8903;52.220;20.978;2022-08-21T06:30:47;23.00;99.90
17571;DHT22;8903;52.220;20.978;2022-08-21T06:33:13;23.10;99.90
17571;DHT22;8903;52.220;20.978;2022-08-21T06:35:40;23.30;99.90
17571;DHT22;8903;52.220;20.978;2022-08-21T06:38:07;23.40;99.90
17571;DHT22;8903;52.220;20.978;2022-08-21T06:40:34;23.40;99.90
17571;DHT22;8903;52.220;20.978;2022-08-21T06:43:05;23.40;99.90
17571;DHT22;8903;52.220;20.978;2022-08-21T06:45:31;23.40;99.90
17571;DHT22;8903;52.220;20.978;2022-08-21T06:47:59;23.40;99.90
17571;DHT22;8903;52.220;20.978;2022-08-21T06:50:26;23.50;99.90
17571;DHT22;8903;52.220;20.978;2022-08-21T06:52:57;23.50;99.90
17571;DHT22;8903;52.220;20.978;2022-08-21T06:55:24;23.60;99.90
17571;DHT22;8903;52.220;20.978;2022-08-21T06:57:51;23.60;99.90
17571;DHT22;8903;52.220;20.978;2022-08-21T07:00:18;23.60;99.90
17571;DHT22;8903;52.220;20.978;2022-08-21T07:02:44;23.70;99.90
17571;DHT22;8903;52.220;20.978;2022-08-21T07:05:12;23.80;99.90
17571;DHT22;8903;52.220;20.978;2022-08-21T07:07:39;23.90;99.90
17571;DHT22;8903;52.220;20.978;2022-08-21T07:10:06;23.90;99.90
17571;DHT22;8903;52.220;20.978;2022-08-21T07:12:32;23.90;99.90
17571;DHT22;8903;52.220;20.978;2022-08-21T07:14:59;23.90;99.90
17571;DHT22;8903;52.220;20.978;2022-08-21T07:17:26;23.90;99.90
17571;DHT22;8903;52.220;20.978;2022-08-21T07:19:52;23.90;99.90
17571;DHT22;8903;52.220;20.978;2022-08-21T07:22:20;24.10;99.90
17571;DHT22;8903;52.220;20.978;2022-08-21T07:24:47;24.20;99.90
17571;DHT22;8903;52.220;20.978;2022-08-21T07:27:14;24.40;99.90
17571;DHT22;8903;52.220;20.978;2022-08-21T07:29:40;24.50;99.90
17571;DHT22;8903;52.220;20.978;2022-08-21T07:32:07;24.60;99.90
17571;DHT22;8903;52.220;20.978;2022-08-21T07:34:33;24.80;99.90
17571;DHT22;8903;52.220;20.978;2022-08-21T07:37:00;24.90;99.90
17571;DHT22;8903;52.220;20.978;2022-08-21T07:39:28;24.90;99.90
17571;DHT22;8903;52.220;20.978;2022-08-21T07:41:55;25.00;99.90
17571;DHT22;8903;52.220;20.978;2022-08-21T07:44:21;25.00;99.90
17571;DHT22;8903;52.220;20.978;2022-08-21T07:46:48;25.10;99.90
17571;DHT22;8903;52.220;20.978;2022-08-21T07:49:15;25.20;99.90
17571;DHT22;8903;52.220;20.978;2022-08-21T07:51:41;25.20;99.90
17571;DHT22;8903;52.220;20.978;2022-08-21T07:54:08;25.30;99.90
17571;DHT22;8903;52.220;20.978;2022-08-21T07:56:36;25.30;99.90
17571;DHT22;8903;52.220;20.978;2022-08-21T07:59:02;25.40;99.90
17571;DHT22;8903;52.220;20.978;2022-08-21T08:01:29;25.50;99.90
17571;DHT22;8903;52.220;20.978;2022-08-21T08:03:56;25.60;99.90
17571;DHT22;8903;52.220;20.978;2022-08-21T08:06:23;25.60;99.90
17571;DHT22;8903;52.220;20.978;2022-08-21T08:08:49;25.80;99.90
17571;DHT22;8903;52.220;20.978;2022-08-21T08:11:16;25.80;99.90
17571;DHT22;8903;52.220;20.978;2022-08-21T08:13:45;25.90;99.90
17571;DHT22;8903;52.220;20.978;2022-08-21T08:16:12;25.90;99.90
17571;DHT22;8903;52.220;20.978;2022-08-21T08:18:38;26.00;99.90
17571;DHT22;8903;52.220;20.978;2022-08-21T08:21:06;25.90;99.90
17571;DHT22;8903;52.220;20.978;2022-08-21T08:23:33;25.90;99.90
17571;DHT22;8903;52.220;20.978;2022-08-21T08:25:59;25.90;99.90
17571;DHT22;8903;52.220;20.978;2022-08-21T08:28:27;26.00;99.90
17571;DHT22;8903;52.220;20.978;2022-08-21T08:30:56;26.00;99.90
17571;DHT22;8903;52.220;20.978;2022-08-21T08:33:22;26.20;99.90
17571;DHT22;8903;52.220;20.978;2022-08-21T08:35:49;26.30;99.90
17571;DHT22;8903;52.220;20.978;2022-08-21T08:38:17;26.50;99.90
17571;DHT22;8903;52.220;20.978;2022-08-21T08:40:46;26.50;99.90
17571;DHT22;8903;52.220;20.978;2022-08-21T08:43:14;26.60;99.90
17571;DHT22;8903;52.220;20.978;2022-08-21T08:45:42;26.60;99.90
17571;DHT22;8903;52.220;20.978;2022-08-21T08:48:12;26.60;99.90
17571;DHT22;8903;52.220;20.978;2022-08-21T08:50:41;26.60;99.90
17571;DHT22;8903;52.220;20.978;2022-08-21T08:53:09;26.60;99.90
17571;DHT22;8903;52.220;20.978;2022-08-21T08:55:37;26.60;99.90
17571;DHT22;8903;52.220;20.978;2022-08-21T08:58:05;26.60;99.90
17571;DHT22;8903;52.220;20.978;2022-08-21T09:00:32;26.60;99.90
17571;DHT22;8903;52.220;20.978;2022-08-21T09:03:00;26.60;99.90
17571;DHT22;8903;52.220;20.978;2022-08-21T09:05:29;26.60;99.90
17571;DHT22;8903;52.220;20.978;2022-08-21T09:08:00;26.70;99.90
17571;DHT22;8903;52.220;20.978;2022-08-21T09:10:34;26.80;99.90
17571;DHT22;8903;52.220;20.978;2022-08-21T09:13:06;26.90;99.90
17571;DHT22;8903;52.220;20.978;2022-08-21T09:15:49;26.90;99.90
17571;DHT22;8903;52.220;20.978;2022-08-21T09:18:20;26.90;99.90
17571;DHT22;8903;52.220;20.978;2022-08-21T09:20:56;27.10;99.90
17571;DHT22;8903;52.220;20.978;2022-08-21T09:23:29;27.30;99.90
17571;DHT22;8903;52.220;20.978;2022-08-21T09:26:04;27.40;99.90
17571;DHT22;8903;52.220;20.978;2022-08-21T09:28:33;27.50;99.90
17571;DHT22;8903;52.220;20.978;2022-08-21T09:31:00;27.70;99.90
17571;DHT22;8903;52.220;20.978;2022-08-21T09:33:28;27.80;99.90
17571;DHT22;8903;52.220;20.978;2022-08-21T09:35:56;27.90;99.90
17571;DHT22;8903;52.220;20.978;2022-08-21T09:38:25;28.00;99.90
17571;DHT22;8903;52.220;20.978;2022-08-21T09:40:55;28.10;99.90
17571;DHT22;8903;52.220;20.978;2022-08-21T09:43:23;28.10;99.40
17571;DHT22;8903;52.220;20.978;2022-08-21T09:46:00;28.20;98.60
17571;DHT22;8903;52.220;20.978;2022-08-21T09:48:27;28.20;98.80
17571;DHT22;8903;52.220;20.978;2022-08-21T09:51:04;28.20;99.10
17571;DHT22;8903;52.220;20.978;2022-08-21T09:53:33;28.10;99.10
17571;DHT22;8903;52.220;20.978;2022-08-21T09:56:02;27.90;99.60
17571;DHT22;8903;52.220;20.978;2022-08-21T09:58:48;27.80;99.40
17571;DHT22;8903;52.220;20.978;2022-08-21T10:01:15;27.70;99.60
17571;DHT22;8903;52.220;20.978;2022-08-21T10:03:43;27.70;99.60
17571;DHT22;8903;52.220;20.978;2022-08-21T10:06:10;27.60;99.30
17571;DHT22;8903;52.220;20.978;2022-08-21T10:08:48;27.60;99.40
17571;DHT22;8903;52.220;20.978;2022-08-21T10:11:15;27.70;99.00
17571;DHT22;8903;52.220;20.978;2022-08-21T10:13:45;27.80;99.10
17571;DHT22;8903;52.220;20.978;2022-08-21T10:16:21;28.00;98.80
17571;DHT22;8903;52.220;20.978;2022-08-21T10:18:56;28.00;98.80
17571;DHT22;8903;52.220;20.978;2022-08-21T10:21:28;28.00;99.00
17571;DHT22;8903;52.220;20.978;2022-08-21T10:24:00;28.00;99.00
17571;DHT22;8903;52.220;20.978;2022-08-21T10:26:31;27.80;99.10
17571;DHT22;8903;52.220;20.978;2022-08-21T10:29:03;27.60;99.30
17571;DHT22;8903;52.220;20.978;2022-08-21T10:31:32;27.50;99.60
17571;DHT22;8903;52.220;20.978;2022-08-21T10:34:05;27.40;99.60
17571;DHT22;8903;52.220;20.978;2022-08-21T10:36:36;27.30;99.50
17571;DHT22;8903;52.220;20.978;2022-08-21T10:39:10;27.30;99.70
17571;DHT22;8903;52.220;20.978;2022-08-21T10:41:41;27.30;99.80
17571;DHT22;8903;52.220;20.978;2022-08-21T10:44:12;27.30;99.40
17571;DHT22;8903;52.220;20.978;2022-08-21T10:46:43;27.40;99.20
17571;DHT22;8903;52.220;20.978;2022-08-21T10:49:14;27.50;99.30
17571;DHT22;8903;52.220;20.978;2022-08-21T10:51:44;27.60;99.40
17571;DHT22;8903;52.220;20.978;2022-08-21T10:54:17;27.60;99.10
17571;DHT22;8903;52.220;20.978;2022-08-21T10:56:45;27.80;99.00
17571;DHT22;8903;52.220;20.978;2022-08-21T10:59:19;28.00;98.90
17571;DHT22;8903;52.220;20.978;2022-08-21T11:01:48;28.00;98.80
17571;DHT22;8903;52.220;20.978;2022-08-21T11:04:18;28.00;98.50
17571;DHT22;8903;52.220;20.978;2022-08-21T11:06:46;27.90;98.50
17571;DHT22;8903;52.220;20.978;2022-08-21T11:09:14;27.90;98.70
17571;DHT22;8903;52.220;20.978;2022-08-21T11:11:46;27.90;98.60
17571;DHT22;8903;52.220;20.978;2022-08-21T11:14:17;28.10;98.50
17571;DHT22;8903;52.220;20.978;2022-08-21T11:16:46;28.20;98.20
17571;DHT22;8903;52.220;20.978;2022-08-21T11:19:17;28.40;98.30
17571;DHT22;8903;52.220;20.978;2022-08-21T11:21:46;28.70;97.60
17571;DHT22;8903;52.220;20.978;2022-08-21T11:24:17;28.80;97.00
17571;DHT22;8903;52.220;20.978;2022-08-21T11:26:47;29.00;96.90
17571;DHT22;8903;52.220;20.978;2022-08-21T11:29:16;29.00;96.40
17571;DHT22;8903;52.220;20.978;2022-08-21T11:31:47;29.20;96.30
17571;DHT22;8903;52.220;20.978;2022-08-21T11:35:17;31.20;94.00
17571;DHT22;8903;52.220;20.978;2022-08-21T11:37:48;32.20;92.30
17571;DHT22;8903;52.220;20.978;2022-08-21T11:40:19;32.60;91.80
17571;DHT22;8903;52.220;20.978;2022-08-21T11:44:52;32.90;91.00
17571;DHT22;8903;52.220;20.978;2022-08-21T11:47:25;32.90;91.30
17571;DHT22;8903;52.220;20.978;2022-08-21T11:49:59;32.50;91.40
17571;DHT22;8903;52.220;20.978;2022-08-21T11:52:28;32.20;92.40
17571;DHT22;8903;52.220;20.978;2022-08-21T11:54:57;32.30;92.10
17571;DHT22;8903;52.220;20.978;2022-08-21T11:57:34;32.40;91.90
17571;DHT22;8903;52.220;20.978;2022-08-21T12:00:04;32.50;92.40
17571;DHT22;8903;52.220;20.978;2022-08-21T12:02:38;32.70;92.30
17571;DHT22;8903;52.220;20.978;2022-08-21T12:05:08;32.80;92.40
17571;DHT22;8903;52.220;20.978;2022-08-21T12:07:36;32.90;92.20
17571;DHT22;8903;52.220;20.978;2022-08-21T12:10:05;33.30;92.40
17571;DHT22;8903;52.220;20.978;2022-08-21T12:12:34;33.90;91.80
17571;DHT22;8903;52.220;20.978;2022-08-21T12:17:56;33.80;91.40
17571;DHT22;8903;52.220;20.978;2022-08-21T12:20:27;33.60;91.20
17571;DHT22;8903;52.220;20.978;2022-08-21T12:23:03;32.70;91.50
17571;DHT22;8903;52.220;20.978;2022-08-21T12:25:36;32.00;92.30
17571;DHT22;8903;52.220;20.978;2022-08-21T12:28:06;32.00;92.70
17571;DHT22;8903;52.220;20.978;2022-08-21T12:30:34;34.60;90.60
17571;DHT22;8903;52.220;20.978;2022-08-21T12:33:03;36.80;88.20
17571;DHT22;8903;52.220;20.978;2022-08-21T12:35:31;38.10;85.50
17571;DHT22;8903;52.220;20.978;2022-08-21T12:37:59;37.60;84.80
17571;DHT22;8903;52.220;20.978;2022-08-21T12:40:29;38.00;83.90
17571;DHT22;8903;52.220;20.978;2022-08-21T12:42:58;38.80;81.50
17571;DHT22;8903;52.220;20.978;2022-08-21T12:45:28;39.40;80.10
17571;DHT22;8903;52.220;20.978;2022-08-21T12:47:56;39.60;79.20
17571;DHT22;8903;52.220;20.978;2022-08-21T12:50:26;39.50;79.50
17571;DHT22;8903;52.220;20.978;2022-08-21T12:52:57;39.10;80.00
17571;DHT22;8903;52.220;20.978;2022-08-21T12:55:26;38.90;80.70
17571;DHT22;8903;52.220;20.978;2022-08-21T12:57:53;39.20;80.00
17571;DHT22;8903;52.220;20.978;2022-08-21T13:00:21;39.30;79.20
17571;DHT22;8903;52.220;20.978;2022-08-21T13:02:49;38.90;79.20
17571;DHT22;8903;52.220;20.978;2022-08-21T13:05:19;38.10;80.20
17571;DHT22;8903;52.220;20.978;2022-08-21T13:07:49;37.90;81.10
17571;DHT22;8903;52.220;20.978;2022-08-21T13:10:16;37.40;82.00
17571;DHT22;8903;52.220;20.978;2022-08-21T13:12:44;35.90;84.60
17571;DHT22;8903;52.220;20.978;2022-08-21T13:15:11;34.50;87.30
17571;DHT22;8903;52.220;20.978;2022-08-21T13:17:38;33.30;90.00
17571;DHT22;8903;52.220;20.978;2022-08-21T13:20:08;32.50;90.60
17571;DHT22;8903;52.220;20.978;2022-08-21T13:22:40;31.80;91.30
17571;DHT22;8903;52.220;20.978;2022-08-21T13:25:09;31.40;92.20
17571;DHT22;8903;52.220;20.978;2022-08-21T13:27:36;31.10;92.80
17571;DHT22;8903;52.220;20.978;2022-08-21T13:30:04;30.90;93.30
17571;DHT22;8903;52.220;20.978;2022-08-21T13:32:33;30.80;93.20
17571;DHT22;8903;52.220;20.978;2022-08-21T13:35:08;30.90;93.20
17571;DHT22;8903;52.220;20.978;2022-08-21T13:37:36;31.10;93.00
17571;DHT22;8903;52.220;20.978;2022-08-21T13:40:06;31.80;92.40
17571;DHT22;8903;52.220;20.978;2022-08-21T13:42:33;32.20;92.00
17571;DHT22;8903;52.220;20.978;2022-08-21T13:44:59;32.10;92.20
17571;DHT22;8903;52.220;20.978;2022-08-21T13:47:26;32.00;92.10
17571;DHT22;8903;52.220;20.978;2022-08-21T13:49:53;31.90;92.20
17571;DHT22;8903;52.220;20.978;2022-08-21T13:52:22;31.70;92.40
17571;DHT22;8903;52.220;20.978;2022-08-21T13:54:52;31.80;92.70
17571;DHT22;8903;52.220;20.978;2022-08-21T13:57:24;32.10;92.50
17571;DHT22;8903;52.220;20.978;2022-08-21T13:59:51;32.30;92.20
17571;DHT22;8903;52.220;20.978;2022-08-21T14:02:18;32.40;92.00
17571;DHT22;8903;52.220;20.978;2022-08-21T14:04:49;32.70;92.00
17571;DHT22;8903;52.220;20.978;2022-08-21T14:07:17;32.80;91.50
17571;DHT22;8903;52.220;20.978;2022-08-21T14:09:45;33.20;91.30
17571;DHT22;8903;52.220;20.978;2022-08-21T14:12:13;33.80;91.00
17571;DHT22;8903;52.220;20.978;2022-08-21T14:14:40;34.30;90.60
17571;DHT22;8903;52.220;20.978;2022-08-21T14:17:09;34.30;90.30
17571;DHT22;8903;52.220;20.978;2022-08-21T14:19:37;34.10;90.40
17571;DHT22;8903;52.220;20.978;2022-08-21T14:22:23;34.30;90.40
17571;DHT22;8903;52.220;20.978;2022-08-21T14:24:59;33.90;90.60
17571;DHT22;8903;52.220;20.978;2022-08-21T14:27:27;33.50;90.80
17571;DHT22;8903;52.220;20.978;2022-08-21T14:29:57;33.50;91.00
17571;DHT22;8903;52.220;20.978;2022-08-21T14:32:25;33.70;90.80
17571;DHT22;8903;52.220;20.978;2022-08-21T14:34:53;34.10;90.60
17571;DHT22;8903;52.220;20.978;2022-08-21T14:37:20;34.70;90.40
17571;DHT22;8903;52.220;20.978;2022-08-21T14:39:46;34.80;89.00
17571;DHT22;8903;52.220;20.978;2022-08-21T14:42:14;35.10;89.80
17571;DHT22;8903;52.220;20.978;2022-08-21T14:44:41;35.10;89.40
17571;DHT22;8903;52.220;20.978;2022-08-21T14:47:08;35.60;89.50
17571;DHT22;8903;52.220;20.978;2022-08-21T14:49:35;35.70;87.80
17571;DHT22;8903;52.220;20.978;2022-08-21T14:52:02;35.80;88.10
17571;DHT22;8903;52.220;20.978;2022-08-21T14:54:29;35.70;87.40
17571;DHT22;8903;52.220;20.978;2022-08-21T14:56:56;35.70;88.00
17571;DHT22;8903;52.220;20.978;2022-08-21T14:59:24;35.60;87.70
17571;DHT22;8903;52.220;20.978;2022-08-21T15:01:51;35.00;88.30
17571;DHT22;8903;52.220;20.978;2022-08-21T15:04:18;34.60;89.70
17571;DHT22;8903;52.220;20.978;2022-08-21T15:06:44;34.70;89.20
17571;DHT22;8903;52.220;20.978;2022-08-21T15:09:11;34.80;88.80
17571;DHT22;8903;52.220;20.978;2022-08-21T15:11:37;34.80;88.90
17571;DHT22;8903;52.220;20.978;2022-08-21T15:14:05;34.80;88.80
17571;DHT22;8903;52.220;20.978;2022-08-21T15:16:34;34.50;88.90
17571;DHT22;8903;52.220;20.978;2022-08-21T15:19:01;34.40;88.20
17571;DHT22;8903;52.220;20.978;2022-08-21T15:21:28;34.50;87.70
17571;DHT22;8903;52.220;20.978;2022-08-21T15:23:54;34.40;88.60
17571;DHT22;8903;52.220;20.978;2022-08-21T15:26:22;34.40;87.80
17571;DHT22;8903;52.220;20.978;2022-08-21T15:28:49;34.30;87.60
17571;DHT22;8903;52.220;20.978;2022-08-21T15:31:15;34.10;87.70
17571;DHT22;8903;52.220;20.978;2022-08-21T15:33:43;34.00;87.80
17571;DHT22;8903;52.220;20.978;2022-08-21T15:36:10;33.80;88.10
17571;DHT22;8903;52.220;20.978;2022-08-21T15:38:36;33.70;88.60
17571;DHT22;8903;52.220;20.978;2022-08-21T15:41:03;33.60;88.90